Time;durP1;ratioP1;P1;durP2;ratioP2;P2;SDS_P1;SDS_P2;PMS_P1;PMS_P2;Temp;Humidity;BMP_temperature;BMP_pressure;BME280_temperature;BME280_humidity;BME280_pressure;Samples;Min_cycle;Max_cycle;Signal;HPM_P1;HPM_P2
2021/06/17 00:00:52;;;;;;;;;;;27.70;44.00;;;;;;1487235;40;19936;-70
2021/06/17 00:02:13;;;;;;;;;;;27.80;44.30;;;;;;1486370;40;20271;-70
2021/06/17 00:03:33;;;;;;;;;;;27.70;44.20;;;;;;1487466;40;20049;-70
2021/06/17 00:04:54;;;;;;;;;;;27.70;44.30;;;;;;1486660;39;20252;-70
2021/06/17 00:06:15;;;;;;;;;;;27.70;44.10;;;;;;1489108;40;20016;-70
2021/06/17 00:07:36;;;;;;;;;;;27.60;43.80;;;;;;1487293;40;20255;-70
2021/06/17 00:08:57;;;;;;;;;;;27.60;43.90;;;;;;1486701;40;19951;-70
2021/06/17 00:10:18;;;;;;;;;;;27.60;44.20;;;;;;1485427;40;20026;-70
2021/06/17 00:11:38;;;;;;;;;;;27.60;44.10;;;;;;1487657;40;20025;-70
2021/06/17 00:13:01;;;;;;;;;;;27.60;44.40;;;;;;1485849;40;19994;-70
2021/06/17 00:14:22;;;;;;;;;;;27.60;44.20;;;;;;1486935;39;19942;-70
2021/06/17 00:15:44;;;;;;;;;;;27.50;43.90;;;;;;1485123;39;20238;-70
2021/06/17 00:17:04;;;;;;;;;;;27.50;44.20;;;;;;1486014;40;19936;-70
2021/06/17 00:18:26;;;;;;;;;;;27.50;44.30;;;;;;1485744;40;19931;-70
2021/06/17 00:19:47;;;;;;;;;;;27.50;44.30;;;;;;1484979;40;20053;-70
2021/06/17 00:21:08;;;;;;;;;;;27.40;44.10;;;;;;1486858;40;19936;-70
2021/06/17 00:22:28;;;;;;;;;;;27.40;43.80;;;;;;1487033;40;19948;-70
2021/06/17 00:23:49;;;;;;;;;;;27.40;43.70;;;;;;1486958;40;19942;-70
2021/06/17 00:25:11;;;;;;;;;;;27.40;43.60;;;;;;1486394;40;20281;-70
2021/06/17 00:26:31;;;;;;;;;;;27.40;43.70;;;;;;1487009;40;19933;-70
2021/06/17 00:27:52;;;;;;;;;;;27.30;43.70;;;;;;1487128;40;19944;-70
2021/06/17 00:29:13;;;;;;;;;;;27.30;43.90;;;;;;1488061;40;19936;-70
2021/06/17 00:30:34;;;;;;;;;;;27.30;44.20;;;;;;1487455;40;19936;-70
2021/06/17 00:31:55;;;;;;;;;;;27.30;44.00;;;;;;1486823;40;20036;-70
2021/06/17 00:33:16;;;;;;;;;;;27.30;44.00;;;;;;1486821;40;19976;-69
2021/06/17 00:34:37;;;;;;;;;;;27.20;44.70;;;;;;1486569;39;20437;-70
2021/06/17 00:35:57;;;;;;;;;;;27.20;44.30;;;;;;1486540;40;19942;-70
2021/06/17 00:37:18;;;;;;;;;;;27.20;44.50;;;;;;1486927;40;20169;-70
2021/06/17 00:38:39;;;;;;;;;;;27.20;44.60;;;;;;1487813;39;19936;-70
2021/06/17 00:40:00;;;;;;;;;;;27.20;44.70;;;;;;1488417;39;19943;-70
2021/06/17 00:41:21;;;;;;;;;;;27.10;44.60;;;;;;1487502;40;19972;-69
2021/06/17 00:42:44;;;;;;;;;;;27.10;44.50;;;;;;1486636;40;19950;-70
2021/06/17 00:44:04;;;;;;;;;;;27.10;44.80;;;;;;1485516;40;19939;-70
2021/06/17 00:45:30;;;;;;;;;;;27.10;44.90;;;;;;1486020;40;19940;-70
2021/06/17 00:46:51;;;;;;;;;;;27.10;45.10;;;;;;1488339;40;19932;-70
2021/06/17 00:48:13;;;;;;;;;;;27.10;45.20;;;;;;1485194;40;19936;-70
2021/06/17 00:49:33;;;;;;;;;;;27.00;44.80;;;;;;1486653;40;20178;-70
2021/06/17 00:50:55;;;;;;;;;;;27.00;45.20;;;;;;1486733;40;19947;-70
2021/06/17 00:52:17;;;;;;;;;;;27.00;45.30;;;;;;1484560;40;19932;-70
2021/06/17 00:53:38;;;;;;;;;;;27.00;45.30;;;;;;1488185;40;20336;-70
2021/06/17 00:54:59;;;;;;;;;;;27.00;45.30;;;;;;1486908;40;19932;-70
2021/06/17 00:56:20;;;;;;;;;;;27.00;45.60;;;;;;1486007;40;20275;-70
2021/06/17 00:57:41;;;;;;;;;;;27.00;45.30;;;;;;1485237;39;19932;-69
2021/06/17 00:59:03;;;;;;;;;;;27.00;45.30;;;;;;1486451;39;19964;-70
2021/06/17 01:00:24;;;;;;;;;;;26.90;45.10;;;;;;1485933;39;19936;-70
2021/06/17 01:01:44;;;;;;;;;;;26.90;45.00;;;;;;1486464;40;19932;-69
2021/06/17 01:03:06;;;;;;;;;;;26.90;45.30;;;;;;1481237;40;19937;-70
2021/06/17 01:04:27;;;;;;;;;;;26.90;45.40;;;;;;1484935;40;19940;-71
2021/06/17 01:05:48;;;;;;;;;;;26.90;45.40;;;;;;1487927;40;20017;-70
2021/06/17 01:07:09;;;;;;;;;;;26.90;45.40;;;;;;1485305;40;19932;-71
2021/06/17 01:09:00;;;;;;;;;;;26.90;45.30;;;;;;1485955;40;19987;-71
2021/06/17 01:10:20;;;;;;;;;;;26.90;45.00;;;;;;1484687;40;19940;-71
2021/06/17 01:11:51;;;;;;;;;;;26.80;45.40;;;;;;1488175;40;20241;-71
2021/06/17 01:13:21;;;;;;;;;;;26.80;45.50;;;;;;1485171;40;19940;-71
2021/06/17 01:15:08;;;;;;;;;;;26.80;45.40;;;;;;1487705;40;19964;-71
2021/06/17 01:16:36;;;;;;;;;;;26.80;45.60;;;;;;1482115;40;19940;-71
2021/06/17 01:18:05;;;;;;;;;;;26.80;45.20;;;;;;1485545;39;19977;-71
2021/06/17 01:19:34;;;;;;;;;;;26.80;45.40;;;;;;1485922;39;19932;-71
2021/06/17 01:20:56;;;;;;;;;;;26.80;45.60;;;;;;1485183;40;19936;-71
2021/06/17 01:22:19;;;;;;;;;;;26.80;45.60;;;;;;1484861;40;19932;-70
2021/06/17 01:23:49;;;;;;;;;;;26.70;45.50;;;;;;1488170;40;19976;-71
2021/06/17 01:25:13;;;;;;;;;;;26.80;45.30;;;;;;1484517;40;20028;-71
2021/06/17 01:26:33;;;;;;;;;;;26.70;45.70;;;;;;1485264;40;20382;-70
2021/06/17 01:28:01;;;;;;;;;;;26.70;45.80;;;;;;1485967;40;19943;-71
2021/06/17 01:29:24;;;;;;;;;;;26.70;45.80;;;;;;1486592;40;20036;-71
2021/06/17 01:31:11;;;;;;;;;;;26.70;45.80;;;;;;1485770;40;20023;-71
2021/06/17 01:32:33;;;;;;;;;;;26.70;45.90;;;;;;1487173;40;20000;-71
2021/06/17 01:33:55;;;;;;;;;;;26.70;45.90;;;;;;1485189;40;19939;-71
2021/06/17 01:35:18;;;;;;;;;;;26.70;46.20;;;;;;1486946;40;20032;-71
2021/06/17 01:36:41;;;;;;;;;;;26.60;46.10;;;;;;1484484;40;19940;-71
2021/06/17 01:38:02;;;;;;;;;;;26.60;46.30;;;;;;1487067;40;19932;-71
2021/06/17 01:39:24;;;;;;;;;;;26.60;45.90;;;;;;1487917;40;20313;-71
2021/06/17 01:40:47;;;;;;;;;;;26.60;46.00;;;;;;1487075;40;19948;-71
2021/06/17 01:42:09;;;;;;;;;;;26.60;46.10;;;;;;1487262;40;20250;-70
2021/06/17 01:43:30;;;;;;;;;;;26.60;46.00;;;;;;1486693;40;19988;-71
2021/06/17 01:44:58;;;;;;;;;;;26.60;46.00;;;;;;1485868;40;19969;-70
2021/06/17 01:46:19;;;;;;;;;;;26.60;46.10;;;;;;1488075;40;19951;-71
2021/06/17 01:47:40;;;;;;;;;;;26.60;46.20;;;;;;1485879;40;20341;-71
2021/06/17 01:49:01;;;;;;;;;;;26.60;46.20;;;;;;1486210;40;20310;-71
2021/06/17 01:50:23;;;;;;;;;;;26.50;46.10;;;;;;1487146;40;19939;-71
2021/06/17 01:51:45;;;;;;;;;;;26.60;46.10;;;;;;1486120;40;20222;-71
2021/06/17 01:53:06;;;;;;;;;;;26.50;46.30;;;;;;1485770;40;19948;-71
2021/06/17 01:54:28;;;;;;;;;;;26.50;46.30;;;;;;1486693;40;19940;-71
2021/06/17 01:55:50;;;;;;;;;;;26.50;46.30;;;;;;1487200;40;20235;-71
2021/06/17 01:57:13;;;;;;;;;;;26.50;46.20;;;;;;1485899;40;19952;-71
2021/06/17 01:58:34;;;;;;;;;;;26.50;46.20;;;;;;1485149;40;19943;-71
2021/06/17 01:59:55;;;;;;;;;;;26.50;46.10;;;;;;1485671;39;20264;-71
2021/06/17 02:01:17;;;;;;;;;;;26.50;46.30;;;;;;1485868;39;19935;-71
2021/06/17 02:02:39;;;;;;;;;;;26.40;46.20;;;;;;1487706;40;19981;-71
2021/06/17 02:04:01;;;;;;;;;;;26.50;46.10;;;;;;1487181;40;20017;-70
2021/06/17 02:05:24;;;;;;;;;;;26.50;46.20;;;;;;1485979;40;19936;-71
2021/06/17 02:06:45;;;;;;;;;;;26.40;46.00;;;;;;1486692;40;19980;-71
2021/06/17 02:08:07;;;;;;;;;;;26.50;46.10;;;;;;1485859;39;19940;-71
2021/06/17 02:09:29;;;;;;;;;;;26.40;46.00;;;;;;1487077;39;19963;-70
2021/06/17 02:10:50;;;;;;;;;;;26.40;46.00;;;;;;1486396;40;20260;-70
2021/06/17 02:12:11;;;;;;;;;;;26.40;46.00;;;;;;1486354;40;19948;-70
2021/06/17 02:13:32;;;;;;;;;;;26.40;46.00;;;;;;1488138;40;19944;-70
2021/06/17 02:14:53;;;;;;;;;;;26.40;46.00;;;;;;1487479;40;19989;-70
2021/06/17 02:16:14;;;;;;;;;;;26.30;46.00;;;;;;1486386;39;20025;-70
2021/06/17 02:17:37;;;;;;;;;;;26.40;46.00;;;;;;1487313;40;19932;-70
2021/06/17 02:18:58;;;;;;;;;;;26.40;46.00;;;;;;1487050;40;19936;-70
2021/06/17 02:20:19;;;;;;;;;;;26.40;46.10;;;;;;1487707;40;19951;-70
2021/06/17 02:21:41;;;;;;;;;;;26.30;45.90;;;;;;1488219;40;19932;-70
2021/06/17 02:23:03;;;;;;;;;;;26.30;45.90;;;;;;1486682;40;19951;-70
2021/06/17 02:24:26;;;;;;;;;;;26.30;46.00;;;;;;1485940;40;20018;-70
2021/06/17 02:25:47;;;;;;;;;;;26.30;45.90;;;;;;1485867;40;19932;-70
2021/06/17 02:27:11;;;;;;;;;;;26.30;45.90;;;;;;1487526;40;19943;-70
2021/06/17 02:28:35;;;;;;;;;;;26.30;45.90;;;;;;1487347;40;19939;-70
2021/06/17 02:29:59;;;;;;;;;;;26.30;45.90;;;;;;1484685;40;19952;-70
2021/06/17 02:31:23;;;;;;;;;;;26.20;45.80;;;;;;1481055;40;20280;-70
2021/06/17 02:32:49;;;;;;;;;;;26.20;45.80;;;;;;1486259;39;19999;-70
2021/06/17 02:34:13;;;;;;;;;;;26.20;45.80;;;;;;1487983;39;20041;-70
2021/06/17 02:35:35;;;;;;;;;;;26.20;45.70;;;;;;1483738;40;19972;-70
2021/06/17 02:36:56;;;;;;;;;;;26.20;45.80;;;;;;1485014;40;19938;-70
2021/06/17 02:38:19;;;;;;;;;;;26.20;45.70;;;;;;1482387;40;19943;-70
2021/06/17 02:39:41;;;;;;;;;;;26.10;45.70;;;;;;1479094;40;19945;-70
2021/06/17 02:41:04;;;;;;;;;;;26.20;45.70;;;;;;1485473;40;20154;-70
2021/06/17 02:42:26;;;;;;;;;;;26.20;45.70;;;;;;1486232;40;19984;-70
2021/06/17 02:43:47;;;;;;;;;;;26.20;45.70;;;;;;1488249;40;19939;-70
2021/06/17 02:45:08;;;;;;;;;;;26.10;45.70;;;;;;1486290;40;19976;-70
2021/06/17 02:46:29;;;;;;;;;;;26.20;45.70;;;;;;1487999;40;19943;-70
2021/06/17 02:47:50;;;;;;;;;;;26.10;45.60;;;;;;1486432;40;19951;-70
2021/06/17 02:49:12;;;;;;;;;;;26.10;45.60;;;;;;1485542;40;19940;-70
2021/06/17 02:50:33;;;;;;;;;;;26.10;45.60;;;;;;1486400;40;20021;-70
2021/06/17 02:51:54;;;;;;;;;;;26.10;45.60;;;;;;1486950;40;19935;-70
2021/06/17 02:53:15;;;;;;;;;;;26.10;45.60;;;;;;1487820;39;19940;-71
2021/06/17 02:54:35;;;;;;;;;;;26.10;45.60;;;;;;1487510;40;19936;-70
2021/06/17 02:55:57;;;;;;;;;;;26.10;45.60;;;;;;1486936;40;19931;-70
2021/06/17 02:57:35;;;;;;;;;;;26.10;45.60;;;;;;1482648;40;19989;-70
2021/06/17 02:59:02;;;;;;;;;;;26.10;45.60;;;;;;1487761;40;19936;-70
2021/06/17 03:00:29;;;;;;;;;;;26.10;45.60;;;;;;1487669;39;19939;-70
2021/06/17 03:01:53;;;;;;;;;;;26.10;45.60;;;;;;1486777;40;19932;-70
2021/06/17 03:03:16;;;;;;;;;;;26.10;45.60;;;;;;1486815;40;20259;-70
2021/06/17 03:04:46;;;;;;;;;;;26.10;45.60;;;;;;1487252;40;19954;-70
2021/06/17 03:06:10;;;;;;;;;;;26.10;45.60;;;;;;1487484;40;20029;-70
2021/06/17 03:07:41;;;;;;;;;;;26.00;45.60;;;;;;1487596;40;19947;-70
2021/06/17 03:09:03;;;;;;;;;;;26.00;45.60;;;;;;1487959;40;19940;-70
2021/06/17 03:10:24;;;;;;;;;;;26.00;45.60;;;;;;1487008;40;19964;-70
2021/06/17 03:11:47;;;;;;;;;;;26.00;45.60;;;;;;1486727;40;20040;-70
2021/06/17 03:13:08;;;;;;;;;;;26.00;45.50;;;;;;1486373;39;19936;-70
2021/06/17 03:14:33;;;;;;;;;;;26.00;45.60;;;;;;1485515;40;19943;-70
2021/06/17 03:15:54;;;;;;;;;;;26.00;45.50;;;;;;1482393;40;19932;-70
2021/06/17 03:17:16;;;;;;;;;;;26.00;45.60;;;;;;1484718;40;19955;-70
2021/06/17 03:18:38;;;;;;;;;;;26.00;45.60;;;;;;1485772;40;19968;-70
2021/06/17 03:20:03;;;;;;;;;;;26.00;45.50;;;;;;1487211;40;19932;-70
2021/06/17 03:21:26;;;;;;;;;;;25.90;45.60;;;;;;1488087;39;19932;-70
2021/06/17 03:22:50;;;;;;;;;;;25.90;45.60;;;;;;1485777;40;20334;-70
2021/06/17 03:24:12;;;;;;;;;;;26.00;45.70;;;;;;1487485;40;20036;-70
2021/06/17 03:25:33;;;;;;;;;;;26.00;45.70;;;;;;1486361;40;19968;-70
2021/06/17 03:26:55;;;;;;;;;;;26.00;45.70;;;;;;1486643;40;19936;-70
2021/06/17 03:28:16;;;;;;;;;;;25.90;45.60;;;;;;1484905;40;19939;-70
2021/06/17 03:29:45;;;;;;;;;;;25.90;45.70;;;;;;1486099;40;20242;-70
2021/06/17 03:31:08;;;;;;;;;;;25.90;45.70;;;;;;1487960;39;19940;-71
2021/06/17 03:32:29;;;;;;;;;;;25.90;45.70;;;;;;1486068;39;20374;-70
2021/06/17 03:33:51;;;;;;;;;;;25.90;45.70;;;;;;1483408;40;19932;-70
2021/06/17 03:35:12;;;;;;;;;;;25.90;45.80;;;;;;1487086;39;19940;-70
2021/06/17 03:36:34;;;;;;;;;;;25.90;45.80;;;;;;1488110;39;19964;-70
2021/06/17 03:37:55;;;;;;;;;;;25.90;45.80;;;;;;1488033;40;19932;-70
2021/06/17 03:39:18;;;;;;;;;;;25.80;45.60;;;;;;1486773;40;19938;-70
2021/06/17 03:40:43;;;;;;;;;;;25.80;45.70;;;;;;1487667;40;19936;-70
2021/06/17 03:42:05;;;;;;;;;;;25.90;45.80;;;;;;1486520;40;20424;-70
2021/06/17 03:43:27;;;;;;;;;;;25.80;45.70;;;;;;1486390;40;20433;-70
2021/06/17 03:44:48;;;;;;;;;;;25.80;45.90;;;;;;1487271;40;19944;-70
2021/06/17 03:46:10;;;;;;;;;;;25.80;45.90;;;;;;1487080;40;19943;-70
2021/06/17 03:47:31;;;;;;;;;;;25.80;45.90;;;;;;1487507;40;19948;-70
2021/06/17 03:48:52;;;;;;;;;;;25.80;45.90;;;;;;1486823;40;19968;-70
2021/06/17 03:50:14;;;;;;;;;;;25.80;46.00;;;;;;1484846;40;19940;-70
2021/06/17 03:51:37;;;;;;;;;;;25.70;45.90;;;;;;1486247;40;19951;-70
2021/06/17 03:52:58;;;;;;;;;;;25.70;45.90;;;;;;1486559;40;19962;-70
2021/06/17 03:54:26;;;;;;;;;;;25.70;45.90;;;;;;1486462;39;20032;-70
2021/06/17 03:55:48;;;;;;;;;;;25.70;45.90;;;;;;1486806;40;19951;-70
2021/06/17 03:57:09;;;;;;;;;;;25.70;45.80;;;;;;1487929;40;19943;-70
2021/06/17 03:58:31;;;;;;;;;;;25.70;45.90;;;;;;1482844;40;19955;-70
2021/06/17 03:59:55;;;;;;;;;;;25.70;45.90;;;;;;1485925;40;19937;-70
2021/06/17 04:01:16;;;;;;;;;;;25.70;45.90;;;;;;1487088;40;19936;-70
2021/06/17 04:02:37;;;;;;;;;;;25.70;46.00;;;;;;1486715;40;20303;-70
2021/06/17 04:03:58;;;;;;;;;;;25.70;45.90;;;;;;1486872;39;19947;-70
2021/06/17 04:05:19;;;;;;;;;;;25.70;45.90;;;;;;1487198;39;19936;-70
2021/06/17 04:06:40;;;;;;;;;;;25.70;46.00;;;;;;1486185;40;20253;-70
2021/06/17 04:08:01;;;;;;;;;;;25.70;46.00;;;;;;1484021;40;19967;-70
2021/06/17 04:09:28;;;;;;;;;;;25.60;45.90;;;;;;1486647;40;19932;-70
2021/06/17 04:10:49;;;;;;;;;;;25.60;45.90;;;;;;1486640;40;19932;-70
2021/06/17 04:12:12;;;;;;;;;;;25.60;46.00;;;;;;1484591;40;19936;-70
2021/06/17 04:13:34;;;;;;;;;;;25.60;46.00;;;;;;1487379;40;19936;-70
2021/06/17 04:14:57;;;;;;;;;;;25.60;46.10;;;;;;1487699;40;19939;-70
2021/06/17 04:16:21;;;;;;;;;;;25.60;46.10;;;;;;1487040;40;19951;-70
2021/06/17 04:17:43;;;;;;;;;;;25.60;46.10;;;;;;1487919;40;19947;-71
2021/06/17 04:19:04;;;;;;;;;;;25.60;46.10;;;;;;1486209;40;20257;-70
2021/06/17 04:20:26;;;;;;;;;;;25.60;46.10;;;;;;1486872;40;19943;-70
2021/06/17 04:21:48;;;;;;;;;;;25.50;46.00;;;;;;1486369;40;19932;-70
2021/06/17 04:23:10;;;;;;;;;;;25.60;46.10;;;;;;1485932;40;20303;-70
2021/06/17 04:24:32;;;;;;;;;;;25.60;46.10;;;;;;1486303;40;19939;-70
2021/06/17 04:25:55;;;;;;;;;;;25.50;46.10;;;;;;1487414;40;19932;-70
2021/06/17 04:27:16;;;;;;;;;;;25.50;46.10;;;;;;1486876;40;19935;-71
2021/06/17 04:28:37;;;;;;;;;;;25.50;46.20;;;;;;1486325;40;20126;-70
2021/06/17 04:29:58;;;;;;;;;;;25.60;46.30;;;;;;1486808;40;20223;-70
2021/06/17 04:31:19;;;;;;;;;;;25.50;46.20;;;;;;1481956;40;19940;-70
2021/06/17 04:32:42;;;;;;;;;;;25.50;46.20;;;;;;1484954;40;19933;-70
2021/06/17 04:34:03;;;;;;;;;;;25.50;46.30;;;;;;1488016;39;19932;-70
2021/06/17 04:35:25;;;;;;;;;;;25.50;46.30;;;;;;1486544;39;19971;-70
2021/06/17 04:36:46;;;;;;;;;;;25.50;46.30;;;;;;1485817;40;19944;-71
2021/06/17 04:38:11;;;;;;;;;;;25.50;46.30;;;;;;1485307;40;19954;-71
2021/06/17 04:39:32;;;;;;;;;;;25.50;46.30;;;;;;1487279;40;19963;-71
2021/06/17 04:40:53;;;;;;;;;;;25.50;46.30;;;;;;1487319;40;20024;-70
2021/06/17 04:42:14;;;;;;;;;;;25.50;46.40;;;;;;1485924;40;20229;-71
2021/06/17 04:43:35;;;;;;;;;;;25.50;46.40;;;;;;1486350;40;19951;-71
2021/06/17 04:44:57;;;;;;;;;;;25.50;46.40;;;;;;1487276;40;19952;-70
2021/06/17 04:46:19;;;;;;;;;;;25.50;46.40;;;;;;1485374;40;19940;-71
2021/06/17 04:47:40;;;;;;;;;;;25.50;46.40;;;;;;1485951;40;19936;-71
2021/06/17 04:49:02;;;;;;;;;;;25.50;46.40;;;;;;1485694;40;21136;-70
2021/06/17 04:50:23;;;;;;;;;;;25.50;46.40;;;;;;1486057;40;19966;-71
2021/06/17 04:51:44;;;;;;;;;;;25.50;46.50;;;;;;1484747;40;19940;-71
2021/06/17 04:53:10;;;;;;;;;;;25.60;46.50;;;;;;1486738;40;20056;-70
2021/06/17 04:54:30;;;;;;;;;;;25.50;46.50;;;;;;1486793;40;19936;-71
2021/06/17 04:55:52;;;;;;;;;;;25.60;46.60;;;;;;1485853;39;19936;-71
2021/06/17 04:57:13;;;;;;;;;;;25.50;46.60;;;;;;1487199;40;19947;-71
2021/06/17 04:58:35;;;;;;;;;;;25.50;46.70;;;;;;1486589;40;19940;-71
2021/06/17 04:59:56;;;;;;;;;;;25.60;46.70;;;;;;1487116;40;20203;-71
2021/06/17 05:01:18;;;;;;;;;;;25.50;46.70;;;;;;1487283;40;19940;-71
2021/06/17 05:02:39;;;;;;;;;;;25.60;46.80;;;;;;1486621;40;19936;-70
2021/06/17 05:03:59;;;;;;;;;;;25.60;46.80;;;;;;1487043;40;19932;-71
2021/06/17 05:05:20;;;;;;;;;;;25.60;46.80;;;;;;1486155;40;20176;-70
2021/06/17 05:06:52;;;;;;;;;;;25.70;46.80;;;;;;1488196;40;20280;-71
2021/06/17 05:11:19;;;;;;;;;;;25.70;46.90;;;;;;1487307;40;19993;-71
2021/06/17 05:12:40;;;;;;;;;;;25.70;46.90;;;;;;1485469;40;19959;-71
2021/06/17 05:14:01;;;;;;;;;;;25.70;46.90;;;;;;1486762;39;19944;-71
2021/06/17 05:15:22;;;;;;;;;;;25.70;46.90;;;;;;1486393;40;19947;-71
2021/06/17 05:16:42;;;;;;;;;;;25.80;47.00;;;;;;1484952;40;19986;-71
2021/06/17 05:18:03;;;;;;;;;;;25.80;47.00;;;;;;1486410;40;19953;-71
2021/06/17 05:19:24;;;;;;;;;;;25.80;46.90;;;;;;1486716;40;19940;-71
2021/06/17 05:20:45;;;;;;;;;;;25.80;46.90;;;;;;1483549;40;19933;-70
2021/06/17 05:22:07;;;;;;;;;;;25.80;47.00;;;;;;1486053;40;20053;-70
2021/06/17 05:23:29;;;;;;;;;;;25.80;46.90;;;;;;1486173;40;19931;-71
2021/06/17 05:24:51;;;;;;;;;;;25.90;47.00;;;;;;1485857;40;19935;-71
2021/06/17 05:26:12;;;;;;;;;;;25.90;47.00;;;;;;1487492;40;19944;-70
2021/06/17 05:27:33;;;;;;;;;;;25.90;47.10;;;;;;1487674;40;19966;-70
2021/06/17 05:28:54;;;;;;;;;;;25.90;47.00;;;;;;1487747;40;19939;-71
2021/06/17 05:30:16;;;;;;;;;;;26.00;47.10;;;;;;1487558;40;19940;-70
2021/06/17 05:31:37;;;;;;;;;;;26.00;47.10;;;;;;1486117;40;19932;-71
2021/06/17 05:32:57;;;;;;;;;;;26.10;47.10;;;;;;1484127;40;19932;-70
2021/06/17 05:34:18;;;;;;;;;;;26.10;47.10;;;;;;1486270;40;19932;-70
2021/06/17 05:35:39;;;;;;;;;;;26.10;47.10;;;;;;1487619;40;19936;-71
2021/06/17 05:37:00;;;;;;;;;;;26.10;47.10;;;;;;1486922;40;19937;-71
2021/06/17 05:38:21;;;;;;;;;;;26.20;47.10;;;;;;1485542;40;20363;-71
2021/06/17 05:39:42;;;;;;;;;;;26.20;47.10;;;;;;1485882;40;20033;-70
2021/06/17 05:41:03;;;;;;;;;;;26.20;47.00;;;;;;1486400;40;19948;-71
2021/06/17 05:42:24;;;;;;;;;;;26.20;47.00;;;;;;1487872;40;19948;-70
2021/06/17 05:43:44;;;;;;;;;;;26.20;47.00;;;;;;1485452;40;19952;-70
2021/06/17 05:45:05;;;;;;;;;;;26.30;47.00;;;;;;1485627;40;19968;-71
2021/06/17 05:46:26;;;;;;;;;;;26.30;47.00;;;;;;1487151;40;19955;-71
2021/06/17 05:47:47;;;;;;;;;;;26.30;46.90;;;;;;1486503;40;20029;-71
2021/06/17 05:49:08;;;;;;;;;;;26.30;46.90;;;;;;1485984;40;19944;-70
2021/06/17 05:50:29;;;;;;;;;;;26.30;46.90;;;;;;1487770;40;19950;-70
2021/06/17 05:51:50;;;;;;;;;;;26.40;47.00;;;;;;1486225;40;19951;-70
2021/06/17 05:53:11;;;;;;;;;;;26.40;46.90;;;;;;1487579;39;20037;-70
2021/06/17 05:54:32;;;;;;;;;;;26.40;46.90;;;;;;1486424;40;19989;-70
2021/06/17 05:55:52;;;;;;;;;;;26.40;46.90;;;;;;1487343;40;19940;-70
2021/06/17 05:57:13;;;;;;;;;;;26.50;47.00;;;;;;1485978;40;19940;-70
2021/06/17 05:58:37;;;;;;;;;;;26.50;47.00;;;;;;1487088;40;19936;-71
2021/06/17 05:59:58;;;;;;;;;;;26.50;47.00;;;;;;1486382;39;20032;-70
2021/06/17 06:01:19;;;;;;;;;;;26.50;47.00;;;;;;1488289;39;19944;-70
2021/06/17 06:02:40;;;;;;;;;;;26.50;47.00;;;;;;1487422;40;20023;-70
2021/06/17 06:04:00;;;;;;;;;;;26.50;47.00;;;;;;1485249;40;19935;-70
2021/06/17 06:05:21;;;;;;;;;;;26.50;46.90;;;;;;1487493;40;19936;-70
2021/06/17 06:06:42;;;;;;;;;;;26.60;47.00;;;;;;1486312;40;19947;-70
2021/06/17 06:08:07;;;;;;;;;;;26.60;47.00;;;;;;1486398;40;19936;-70
2021/06/17 06:09:28;;;;;;;;;;;26.60;47.00;;;;;;1486298;40;19940;-70
2021/06/17 06:10:49;;;;;;;;;;;26.60;47.10;;;;;;1487138;40;19936;-70
2021/06/17 06:12:10;;;;;;;;;;;26.70;47.10;;;;;;1487419;40;20053;-70
2021/06/17 06:13:32;;;;;;;;;;;26.60;47.00;;;;;;1486351;40;19944;-70
2021/06/17 06:14:53;;;;;;;;;;;26.70;47.00;;;;;;1485823;40;19939;-70
2021/06/17 06:16:13;;;;;;;;;;;26.60;46.90;;;;;;1487585;40;20264;-70
2021/06/17 06:17:34;;;;;;;;;;;26.70;46.90;;;;;;1487515;40;19936;-70
2021/06/17 06:18:55;;;;;;;;;;;26.60;46.90;;;;;;1487028;40;20249;-70
2021/06/17 06:20:16;;;;;;;;;;;26.70;46.90;;;;;;1487355;40;20520;-70
2021/06/17 06:21:37;;;;;;;;;;;26.70;46.90;;;;;;1485643;40;19936;-70
2021/06/17 06:22:57;;;;;;;;;;;26.70;46.90;;;;;;1486583;40;19940;-70
2021/06/17 06:24:18;;;;;;;;;;;26.70;46.90;;;;;;1487435;40;19967;-70
2021/06/17 06:25:44;;;;;;;;;;;26.70;47.00;;;;;;1487648;40;19936;-70
2021/06/17 06:27:05;;;;;;;;;;;26.70;46.90;;;;;;1486662;40;19981;-70
2021/06/17 06:28:27;;;;;;;;;;;26.80;47.00;;;;;;1487608;40;19938;-70
2021/06/17 06:29:47;;;;;;;;;;;26.80;46.90;;;;;;1485132;39;19936;-70
2021/06/17 06:31:08;;;;;;;;;;;26.80;46.90;;;;;;1487412;39;20214;-70
2021/06/17 06:32:30;;;;;;;;;;;26.80;46.80;;;;;;1486835;39;19976;-70
2021/06/17 06:33:50;;;;;;;;;;;26.80;46.80;;;;;;1487105;40;19936;-70
2021/06/17 06:35:11;;;;;;;;;;;26.80;46.80;;;;;;1483296;40;20273;-70
2021/06/17 06:36:32;;;;;;;;;;;26.80;46.80;;;;;;1484148;40;20441;-70
2021/06/17 06:37:53;;;;;;;;;;;26.80;46.80;;;;;;1486786;40;19941;-70
2021/06/17 06:39:14;;;;;;;;;;;26.80;46.80;;;;;;1487300;40;19944;-70
2021/06/17 06:40:36;;;;;;;;;;;26.80;46.80;;;;;;1486969;40;19932;-71
2021/06/17 06:41:56;;;;;;;;;;;26.80;46.80;;;;;;1485395;40;19943;-70
2021/06/17 06:43:17;;;;;;;;;;;26.80;46.80;;;;;;1486199;40;20382;-70
2021/06/17 06:44:38;;;;;;;;;;;26.80;46.90;;;;;;1485477;40;20200;-70
2021/06/17 06:45:59;;;;;;;;;;;26.90;47.00;;;;;;1484823;40;19962;-70
2021/06/17 06:47:20;;;;;;;;;;;26.90;47.00;;;;;;1486564;40;19940;-70
2021/06/17 06:48:40;;;;;;;;;;;26.90;47.00;;;;;;1485016;40;19940;-70
2021/06/17 06:50:01;;;;;;;;;;;26.90;47.00;;;;;;1486417;40;19948;-70
2021/06/17 06:51:22;;;;;;;;;;;26.90;47.10;;;;;;1485757;40;19968;-70
2021/06/17 06:52:43;;;;;;;;;;;26.90;47.10;;;;;;1485788;40;19936;-70
2021/06/17 06:54:04;;;;;;;;;;;27.00;47.10;;;;;;1487129;40;19932;-70
2021/06/17 06:55:25;;;;;;;;;;;27.00;47.00;;;;;;1487412;40;19958;-70
2021/06/17 06:56:47;;;;;;;;;;;27.00;47.00;;;;;;1486106;40;19943;-70
2021/06/17 06:58:08;;;;;;;;;;;27.00;47.00;;;;;;1486158;40;20168;-70
2021/06/17 06:59:28;;;;;;;;;;;27.00;47.00;;;;;;1485879;40;20312;-70
2021/06/17 07:00:49;;;;;;;;;;;27.10;47.00;;;;;;1487796;40;19943;-70
2021/06/17 07:02:10;;;;;;;;;;;27.10;47.00;;;;;;1486753;40;19940;-70
2021/06/17 07:03:31;;;;;;;;;;;27.10;47.10;;;;;;1486654;40;20003;-71
2021/06/17 07:04:52;;;;;;;;;;;27.10;47.00;;;;;;1482821;40;20246;-70
2021/06/17 07:06:12;;;;;;;;;;;27.20;47.00;;;;;;1485424;40;19969;-70
2021/06/17 07:07:33;;;;;;;;;;;27.20;47.00;;;;;;1486305;39;19940;-71
2021/06/17 07:08:54;;;;;;;;;;;27.20;47.00;;;;;;1487470;40;20264;-70
2021/06/17 07:10:15;;;;;;;;;;;27.20;47.00;;;;;;1485805;40;19944;-70
2021/06/17 07:11:37;;;;;;;;;;;27.30;47.00;;;;;;1486817;40;20025;-70
2021/06/17 07:12:57;;;;;;;;;;;27.30;47.00;;;;;;1485534;40;19940;-70
2021/06/17 07:14:18;;;;;;;;;;;27.30;47.10;;;;;;1483502;40;19990;-70
2021/06/17 07:15:39;;;;;;;;;;;27.40;47.10;;;;;;1485492;40;19940;-70
2021/06/17 07:17:00;;;;;;;;;;;27.40;47.10;;;;;;1486578;40;19956;-70
2021/06/17 07:18:21;;;;;;;;;;;27.50;47.20;;;;;;1488031;40;20297;-70
2021/06/17 07:19:42;;;;;;;;;;;27.50;47.20;;;;;;1485843;40;19938;-70
2021/06/17 07:21:03;;;;;;;;;;;27.60;47.30;;;;;;1486402;40;20437;-70
2021/06/17 07:22:25;;;;;;;;;;;27.60;47.30;;;;;;1486963;40;19947;-70
2021/06/17 07:23:50;;;;;;;;;;;27.60;47.40;;;;;;1488824;39;19942;-70
2021/06/17 07:25:11;;;;;;;;;;;27.70;47.50;;;;;;1486972;39;19968;-70
2021/06/17 07:26:32;;;;;;;;;;;27.80;47.50;;;;;;1486808;40;20328;-70
2021/06/17 07:27:52;;;;;;;;;;;27.80;47.50;;;;;;1488091;40;19972;-70
2021/06/17 07:29:13;;;;;;;;;;;27.80;47.50;;;;;;1487164;40;19955;-70
2021/06/17 07:30:34;;;;;;;;;;;27.90;47.50;;;;;;1486958;40;19939;-70
2021/06/17 07:31:55;;;;;;;;;;;27.90;47.50;;;;;;1486793;40;20552;-70
2021/06/17 07:33:16;;;;;;;;;;;28.00;47.50;;;;;;1485163;40;19947;-70
2021/06/17 07:34:37;;;;;;;;;;;28.00;47.50;;;;;;1486158;40;19943;-70
2021/06/17 07:35:58;;;;;;;;;;;28.10;47.50;;;;;;1486775;40;20049;-70
2021/06/17 07:37:18;;;;;;;;;;;28.10;47.50;;;;;;1487254;40;19935;-70
2021/06/17 07:38:39;;;;;;;;;;;28.10;47.60;;;;;;1487749;40;20011;-70
2021/06/17 07:40:00;;;;;;;;;;;28.20;47.50;;;;;;1486406;40;20406;-70
2021/06/17 07:41:21;;;;;;;;;;;28.20;47.50;;;;;;1486750;40;19968;-70
2021/06/17 07:42:41;;;;;;;;;;;28.20;47.50;;;;;;1488091;40;19936;-70
2021/06/17 07:44:03;;;;;;;;;;;28.30;47.50;;;;;;1486408;40;19966;-70
2021/06/17 07:45:29;;;;;;;;;;;28.30;47.50;;;;;;1486794;40;20149;-70
2021/06/17 07:46:50;;;;;;;;;;;28.40;47.50;;;;;;1486159;40;20007;-70
2021/06/17 07:48:11;;;;;;;;;;;28.40;47.40;;;;;;1485883;40;19974;-70
2021/06/17 07:49:32;;;;;;;;;;;28.40;47.40;;;;;;1485873;40;19948;-70
2021/06/17 07:50:53;;;;;;;;;;;28.40;47.30;;;;;;1487699;40;20021;-70
2021/06/17 07:52:14;;;;;;;;;;;28.50;47.40;;;;;;1487631;40;19960;-71
2021/06/17 07:53:35;;;;;;;;;;;28.50;47.50;;;;;;1488037;40;19959;-71
2021/06/17 07:54:56;;;;;;;;;;;28.60;47.70;;;;;;1485000;40;19936;-70
2021/06/17 07:56:16;;;;;;;;;;;28.60;47.50;;;;;;1486749;40;19944;-70
2021/06/17 07:57:37;;;;;;;;;;;28.60;47.50;;;;;;1486425;40;19932;-70
2021/06/17 07:58:58;;;;;;;;;;;28.60;47.40;;;;;;1485543;40;19932;-71
2021/06/17 08:00:19;;;;;;;;;;;28.70;47.40;;;;;;1486968;40;20516;-71